sensor_id;sensor_type;location;lat;lon;timestamp;pressure;altitude;pressure_sealevel;temperature;humidity
70488;BME280;57976;48.174;16.370;2024-01-10T00:00:16;100880.54;;;-5.90;85.45
70488;BME280;57976;48.174;16.370;2024-01-10T00:02:21;100882.69;;;-5.96;84.80
70488;BME280;57976;48.174;16.370;2024-01-10T00:04:25;100876.88;;;-6.03;85.09
70488;BME280;57976;48.174;16.370;2024-01-10T00:06:30;100876.62;;;-6.09;84.61
70488;BME280;57976;48.174;16.370;2024-01-10T00:08:35;100875.08;;;-6.14;84.52
70488;BME280;57976;48.174;16.370;2024-01-10T00:10:40;100868.45;;;-6.21;84.36
70488;BME280;57976;48.174;16.370;2024-01-10T00:12:45;100873.79;;;-6.26;84.34
70488;BME280;57976;48.174;16.370;2024-01-10T00:14:49;100869.28;;;-6.30;84.25
70488;BME280;57976;48.174;16.370;2024-01-10T00:16:54;100868.52;;;-6.32;84.20
70488;BME280;57976;48.174;16.370;2024-01-10T00:18:59;100866.70;;;-6.35;84.15
70488;BME280;57976;48.174;16.370;2024-01-10T00:21:06;100864.28;;;-6.39;84.42
70488;BME280;57976;48.174;16.370;2024-01-10T00:23:11;100863.88;;;-6.42;84.51
70488;BME280;57976;48.174;16.370;2024-01-10T00:25:16;100863.95;;;-6.44;84.04
70488;BME280;57976;48.174;16.370;2024-01-10T00:27:20;100863.09;;;-6.44;84.21
70488;BME280;57976;48.174;16.370;2024-01-10T00:29:25;100863.91;;;-6.43;84.37
70488;BME280;57976;48.174;16.370;2024-01-10T00:31:30;100863.45;;;-6.44;83.91
70488;BME280;57976;48.174;16.370;2024-01-10T00:33:35;100866.00;;;-6.48;83.99
70488;BME280;57976;48.174;16.370;2024-01-10T00:35:40;100863.48;;;-6.50;84.28
70488;BME280;57976;48.174;16.370;2024-01-10T00:37:45;100866.59;;;-6.50;84.71
70488;BME280;57976;48.174;16.370;2024-01-10T00:39:50;100868.45;;;-6.49;84.79
70488;BME280;57976;48.174;16.370;2024-01-10T00:41:55;100866.77;;;-6.45;85.56
70488;BME280;57976;48.174;16.370;2024-01-10T00:43:59;100864.74;;;-6.42;85.40
70488;BME280;57976;48.174;16.370;2024-01-10T00:46:04;100863.54;;;-6.42;85.32
70488;BME280;57976;48.174;16.370;2024-01-10T00:48:09;100864.42;;;-6.43;85.37
70488;BME280;57976;48.174;16.370;2024-01-10T00:50:14;100865.92;;;-6.46;85.00
70488;BME280;57976;48.174;16.370;2024-01-10T00:52:21;100865.86;;;-6.49;84.57
70488;BME280;57976;48.174;16.370;2024-01-10T00:54:28;100871.04;;;-6.53;84.48
70488;BME280;57976;48.174;16.370;2024-01-10T00:56:34;100872.20;;;-6.57;84.30
70488;BME280;57976;48.174;16.370;2024-01-10T00:58:42;100870.41;;;-6.60;84.76
70488;BME280;57976;48.174;16.370;2024-01-10T01:00:49;100873.60;;;-6.62;84.43
70488;BME280;57976;48.174;16.370;2024-01-10T01:02:55;100878.13;;;-6.63;84.96
70488;BME280;57976;48.174;16.370;2024-01-10T01:05:02;100877.13;;;-6.64;85.33
70488;BME280;57976;48.174;16.370;2024-01-10T01:07:09;100873.83;;;-6.59;85.81
70488;BME280;57976;48.174;16.370;2024-01-10T01:09:15;100875.95;;;-6.55;85.69
70488;BME280;57976;48.174;16.370;2024-01-10T01:11:25;100874.80;;;-6.57;84.70
70488;BME280;57976;48.174;16.370;2024-01-10T01:13:32;100876.27;;;-6.59;84.66
70488;BME280;57976;48.174;16.370;2024-01-10T01:15:38;100877.72;;;-6.61;85.10
70488;BME280;57976;48.174;16.370;2024-01-10T01:17:46;100877.33;;;-6.60;85.37
70488;BME280;57976;48.174;16.370;2024-01-10T01:19:53;100875.94;;;-6.60;85.09
70488;BME280;57976;48.174;16.370;2024-01-10T01:22:00;100876.90;;;-6.62;84.81
70488;BME280;57976;48.174;16.370;2024-01-10T01:24:06;100877.11;;;-6.63;84.73
70488;BME280;57976;48.174;16.370;2024-01-10T01:26:11;100877.52;;;-6.69;84.46
70488;BME280;57976;48.174;16.370;2024-01-10T01:28:17;100875.23;;;-6.73;84.70
70488;BME280;57976;48.174;16.370;2024-01-10T01:30:22;100877.35;;;-6.75;84.68
70488;BME280;57976;48.174;16.370;2024-01-10T01:32:27;100874.67;;;-6.77;85.18
70488;BME280;57976;48.174;16.370;2024-01-10T01:34:33;100872.36;;;-6.80;85.79
70488;BME280;57976;48.174;16.370;2024-01-10T01:36:40;100873.15;;;-6.83;86.16
70488;BME280;57976;48.174;16.370;2024-01-10T01:38:46;100874.92;;;-6.85;86.62
70488;BME280;57976;48.174;16.370;2024-01-10T01:40:52;100877.61;;;-6.82;86.70
70488;BME280;57976;48.174;16.370;2024-01-10T01:42:59;100878.27;;;-6.81;86.49
70488;BME280;57976;48.174;16.370;2024-01-10T01:45:05;100874.83;;;-6.82;86.01
70488;BME280;57976;48.174;16.370;2024-01-10T01:47:12;100871.81;;;-6.85;85.89
70488;BME280;57976;48.174;16.370;2024-01-10T01:49:18;100873.64;;;-6.87;86.07
70488;BME280;57976;48.174;16.370;2024-01-10T01:51:27;100878.52;;;-6.88;86.82
70488;BME280;57976;48.174;16.370;2024-01-10T01:53:35;100874.98;;;-6.91;87.59
70488;BME280;57976;48.174;16.370;2024-01-10T01:55:42;100878.85;;;-6.93;87.51
70488;BME280;57976;48.174;16.370;2024-01-10T01:57:48;100875.15;;;-6.96;87.17
70488;BME280;57976;48.174;16.370;2024-01-10T02:00:12;100872.61;;;-6.97;86.51
70488;BME280;57976;48.174;16.370;2024-01-10T02:02:21;100873.20;;;-6.99;86.78
70488;BME280;57976;48.174;16.370;2024-01-10T02:04:26;100869.34;;;-7.02;86.75
70488;BME280;57976;48.174;16.370;2024-01-10T02:06:34;100868.23;;;-7.05;86.98
70488;BME280;57976;48.174;16.370;2024-01-10T02:08:39;100867.23;;;-7.06;87.14
70488;BME280;57976;48.174;16.370;2024-01-10T02:10:44;100863.95;;;-7.06;87.45
70488;BME280;57976;48.174;16.370;2024-01-10T02:12:48;100863.49;;;-7.08;87.22
70488;BME280;57976;48.174;16.370;2024-01-10T02:14:53;100863.42;;;-7.06;86.80
70488;BME280;57976;48.174;16.370;2024-01-10T02:16:58;100864.27;;;-7.06;87.49
70488;BME280;57976;48.174;16.370;2024-01-10T02:19:18;100861.76;;;-7.07;87.60
70488;BME280;57976;48.174;16.370;2024-01-10T02:21:23;100864.16;;;-7.07;87.62
70488;BME280;57976;48.174;16.370;2024-01-10T02:23:28;100865.71;;;-7.07;87.69
70488;BME280;57976;48.174;16.370;2024-01-10T02:25:34;100869.48;;;-7.06;87.68
70488;BME280;57976;48.174;16.370;2024-01-10T02:27:39;100869.65;;;-7.06;87.68
70488;BME280;57976;48.174;16.370;2024-01-10T02:29:44;100867.05;;;-7.06;87.30
70488;BME280;57976;48.174;16.370;2024-01-10T02:31:50;100866.89;;;-7.06;87.49
70488;BME280;57976;48.174;16.370;2024-01-10T02:33:55;100861.30;;;-7.10;87.04
70488;BME280;57976;48.174;16.370;2024-01-10T02:35:59;100862.73;;;-7.11;87.48
70488;BME280;57976;48.174;16.370;2024-01-10T02:38:07;100865.02;;;-7.12;87.84
70488;BME280;57976;48.174;16.370;2024-01-10T02:40:13;100863.34;;;-7.14;88.07
70488;BME280;57976;48.174;16.370;2024-01-10T02:42:17;100866.02;;;-7.11;88.61
70488;BME280;57976;48.174;16.370;2024-01-10T02:44:22;100863.92;;;-7.10;88.02
70488;BME280;57976;48.174;16.370;2024-01-10T02:46:27;100866.20;;;-7.11;88.22
70488;BME280;57976;48.174;16.370;2024-01-10T02:48:32;100865.57;;;-7.13;87.72
70488;BME280;57976;48.174;16.370;2024-01-10T02:50:37;100867.79;;;-7.17;87.67
70488;BME280;57976;48.174;16.370;2024-01-10T02:52:42;100866.02;;;-7.21;87.37
70488;BME280;57976;48.174;16.370;2024-01-10T02:54:46;100868.36;;;-7.29;88.10
70488;BME280;57976;48.174;16.370;2024-01-10T02:56:51;100864.41;;;-7.34;88.14
70488;BME280;57976;48.174;16.370;2024-01-10T02:58:56;100863.58;;;-7.40;88.64
70488;BME280;57976;48.174;16.370;2024-01-10T03:01:01;100861.77;;;-7.43;88.98
70488;BME280;57976;48.174;16.370;2024-01-10T03:03:08;100860.22;;;-7.43;89.32
70488;BME280;57976;48.174;16.370;2024-01-10T03:05:13;100857.90;;;-7.46;88.97
70488;BME280;57976;48.174;16.370;2024-01-10T03:07:18;100857.60;;;-7.47;88.60
70488;BME280;57976;48.174;16.370;2024-01-10T03:09:23;100856.39;;;-7.47;88.91
70488;BME280;57976;48.174;16.370;2024-01-10T03:11:28;100854.42;;;-7.45;89.29
70488;BME280;57976;48.174;16.370;2024-01-10T03:13:32;100854.83;;;-7.42;89.63
70488;BME280;57976;48.174;16.370;2024-01-10T03:15:37;100858.92;;;-7.41;89.22
70488;BME280;57976;48.174;16.370;2024-01-10T03:17:42;100854.59;;;-7.40;89.12
70488;BME280;57976;48.174;16.370;2024-01-10T03:19:47;100857.09;;;-7.43;88.91
70488;BME280;57976;48.174;16.370;2024-01-10T03:21:51;100855.41;;;-7.44;89.36
70488;BME280;57976;48.174;16.370;2024-01-10T03:23:56;100852.71;;;-7.46;90.12
70488;BME280;57976;48.174;16.370;2024-01-10T03:26:01;100856.98;;;-7.45;90.32
70488;BME280;57976;48.174;16.370;2024-01-10T03:28:06;100851.23;;;-7.42;90.11
70488;BME280;57976;48.174;16.370;2024-01-10T03:30:12;100854.23;;;-7.45;89.49
70488;BME280;57976;48.174;16.370;2024-01-10T03:32:17;100853.42;;;-7.46;90.20
70488;BME280;57976;48.174;16.370;2024-01-10T03:34:21;100854.02;;;-7.48;90.04
70488;BME280;57976;48.174;16.370;2024-01-10T03:36:26;100857.14;;;-7.49;89.96
70488;BME280;57976;48.174;16.370;2024-01-10T03:38:31;100851.55;;;-7.52;90.06
70488;BME280;57976;48.174;16.370;2024-01-10T03:40:35;100852.55;;;-7.52;90.20
70488;BME280;57976;48.174;16.370;2024-01-10T03:42:40;100854.31;;;-7.47;90.51
70488;BME280;57976;48.174;16.370;2024-01-10T03:44:45;100857.51;;;-7.44;90.58
70488;BME280;57976;48.174;16.370;2024-01-10T03:46:49;100853.47;;;-7.42;90.12
70488;BME280;57976;48.174;16.370;2024-01-10T03:48:54;100857.25;;;-7.42;89.87
70488;BME280;57976;48.174;16.370;2024-01-10T03:50:59;100855.23;;;-7.44;89.88
70488;BME280;57976;48.174;16.370;2024-01-10T03:53:06;100848.98;;;-7.42;89.55
70488;BME280;57976;48.174;16.370;2024-01-10T03:55:11;100844.98;;;-7.41;89.79
70488;BME280;57976;48.174;16.370;2024-01-10T03:57:16;100845.30;;;-7.36;90.25
70488;BME280;57976;48.174;16.370;2024-01-10T03:59:21;100848.35;;;-7.34;89.96
70488;BME280;57976;48.174;16.370;2024-01-10T04:01:26;100849.88;;;-7.33;89.96
70488;BME280;57976;48.174;16.370;2024-01-10T04:03:30;100844.96;;;-7.31;90.04
70488;BME280;57976;48.174;16.370;2024-01-10T04:05:35;100842.67;;;-7.29;89.87
70488;BME280;57976;48.174;16.370;2024-01-10T04:07:42;100845.02;;;-7.27;89.91
70488;BME280;57976;48.174;16.370;2024-01-10T04:09:50;100843.20;;;-7.20;90.59
70488;BME280;57976;48.174;16.370;2024-01-10T04:11:54;100845.85;;;-7.16;89.99
70488;BME280;57976;48.174;16.370;2024-01-10T04:13:59;100846.48;;;-7.15;89.98
70488;BME280;57976;48.174;16.370;2024-01-10T04:16:04;100845.52;;;-7.12;89.97
70488;BME280;57976;48.174;16.370;2024-01-10T04:18:09;100847.47;;;-7.09;90.24
70488;BME280;57976;48.174;16.370;2024-01-10T04:20:18;100849.33;;;-7.08;89.73
70488;BME280;57976;48.174;16.370;2024-01-10T04:22:24;100845.70;;;-7.08;89.47
70488;BME280;57976;48.174;16.370;2024-01-10T04:24:32;100839.77;;;-7.11;89.44
70488;BME280;57976;48.174;16.370;2024-01-10T04:26:39;100841.78;;;-7.09;89.97
70488;BME280;57976;48.174;16.370;2024-01-10T04:28:44;100839.48;;;-7.07;90.70
70488;BME280;57976;48.174;16.370;2024-01-10T04:30:49;100840.32;;;-7.07;90.65
70488;BME280;57976;48.174;16.370;2024-01-10T04:32:54;100844.30;;;-7.07;90.73
70488;BME280;57976;48.174;16.370;2024-01-10T04:34:58;100840.52;;;-7.02;90.84
70488;BME280;57976;48.174;16.370;2024-01-10T04:37:04;100841.77;;;-6.94;91.40
70488;BME280;57976;48.174;16.370;2024-01-10T04:39:08;100838.53;;;-6.90;91.04
70488;BME280;57976;48.174;16.370;2024-01-10T04:41:13;100837.54;;;-6.87;90.85
70488;BME280;57976;48.174;16.370;2024-01-10T04:43:18;100836.04;;;-6.79;91.70
70488;BME280;57976;48.174;16.370;2024-01-10T04:45:22;100835.87;;;-6.75;90.87
70488;BME280;57976;48.174;16.370;2024-01-10T04:47:27;100836.91;;;-6.75;90.47
70488;BME280;57976;48.174;16.370;2024-01-10T04:49:33;100838.06;;;-6.72;92.61
70488;BME280;57976;48.174;16.370;2024-01-10T04:51:37;100832.86;;;-6.67;93.07
70488;BME280;57976;48.174;16.370;2024-01-10T04:53:45;100836.55;;;-6.64;92.42
70488;BME280;57976;48.174;16.370;2024-01-10T04:55:50;100835.60;;;-6.62;91.96
70488;BME280;57976;48.174;16.370;2024-01-10T04:57:55;100835.35;;;-6.60;91.76
70488;BME280;57976;48.174;16.370;2024-01-10T05:00:04;100835.11;;;-6.53;92.24
70488;BME280;57976;48.174;16.370;2024-01-10T05:02:09;100835.23;;;-6.48;92.28
70488;BME280;57976;48.174;16.370;2024-01-10T05:04:14;100834.59;;;-6.40;92.50
70488;BME280;57976;48.174;16.370;2024-01-10T05:06:19;100829.70;;;-6.34;91.56
70488;BME280;57976;48.174;16.370;2024-01-10T05:08:24;100828.87;;;-6.30;91.12
70488;BME280;57976;48.174;16.370;2024-01-10T05:10:29;100829.90;;;-6.26;91.71
70488;BME280;57976;48.174;16.370;2024-01-10T05:12:34;100829.07;;;-6.22;91.53
70488;BME280;57976;48.174;16.370;2024-01-10T05:14:38;100831.38;;;-6.19;91.08
70488;BME280;57976;48.174;16.370;2024-01-10T05:16:44;100832.63;;;-6.16;91.87
70488;BME280;57976;48.174;16.370;2024-01-10T05:18:52;100828.80;;;-6.11;91.69
70488;BME280;57976;48.174;16.370;2024-01-10T05:20:56;100826.55;;;-6.11;90.89
70488;BME280;57976;48.174;16.370;2024-01-10T05:23:01;100826.41;;;-6.07;94.88
70488;BME280;57976;48.174;16.370;2024-01-10T05:25:07;100824.81;;;-6.02;97.20
70488;BME280;57976;48.174;16.370;2024-01-10T05:27:12;100827.02;;;-6.01;95.31
70488;BME280;57976;48.174;16.370;2024-01-10T05:29:16;100828.80;;;-6.03;93.54
70488;BME280;57976;48.174;16.370;2024-01-10T05:31:21;100824.48;;;-6.03;93.53
70488;BME280;57976;48.174;16.370;2024-01-10T05:33:26;100825.59;;;-6.00;93.11
70488;BME280;57976;48.174;16.370;2024-01-10T05:35:31;100828.64;;;-5.98;92.92
70488;BME280;57976;48.174;16.370;2024-01-10T05:37:36;100823.70;;;-5.95;92.49
70488;BME280;57976;48.174;16.370;2024-01-10T05:39:40;100825.83;;;-5.92;92.84
70488;BME280;57976;48.174;16.370;2024-01-10T05:41:45;100829.98;;;-5.88;92.74
70488;BME280;57976;48.174;16.370;2024-01-10T05:43:50;100826.35;;;-5.88;92.74
70488;BME280;57976;48.174;16.370;2024-01-10T05:45:55;100829.27;;;-5.88;92.13
70488;BME280;57976;48.174;16.370;2024-01-10T05:47:59;100826.85;;;-5.88;91.82
70488;BME280;57976;48.174;16.370;2024-01-10T05:50:05;100824.91;;;-5.87;91.80
70488;BME280;57976;48.174;16.370;2024-01-10T05:52:10;100822.04;;;-5.88;91.88
70488;BME280;57976;48.174;16.370;2024-01-10T05:54:15;100825.14;;;-5.88;91.99
70488;BME280;57976;48.174;16.370;2024-01-10T05:56:20;100827.31;;;-5.91;92.74
70488;BME280;57976;48.174;16.370;2024-01-10T05:58:25;100828.87;;;-5.91;92.81
70488;BME280;57976;48.174;16.370;2024-01-10T06:00:29;100827.05;;;-5.88;93.10
70488;BME280;57976;48.174;16.370;2024-01-10T06:02:34;100828.01;;;-5.91;92.26
70488;BME280;57976;48.174;16.370;2024-01-10T06:04:39;100824.67;;;-5.90;92.80
70488;BME280;57976;48.174;16.370;2024-01-10T06:06:44;100824.98;;;-5.89;92.07
70488;BME280;57976;48.174;16.370;2024-01-10T06:08:48;100825.98;;;-5.87;92.69
70488;BME280;57976;48.174;16.370;2024-01-10T06:10:53;100829.13;;;-5.89;92.40
70488;BME280;57976;48.174;16.370;2024-01-10T06:12:58;100830.45;;;-5.92;92.05
70488;BME280;57976;48.174;16.370;2024-01-10T06:15:04;100828.69;;;-5.95;91.78
70488;BME280;57976;48.174;16.370;2024-01-10T06:17:09;100827.89;;;-5.96;92.21
70488;BME280;57976;48.174;16.370;2024-01-10T06:19:14;100828.48;;;-5.94;92.69
70488;BME280;57976;48.174;16.370;2024-01-10T06:21:19;100825.53;;;-5.94;92.51
70488;BME280;57976;48.174;16.370;2024-01-10T06:23:24;100827.02;;;-5.92;92.73
70488;BME280;57976;48.174;16.370;2024-01-10T06:25:28;100827.55;;;-5.92;92.54
70488;BME280;57976;48.174;16.370;2024-01-10T06:27:33;100830.40;;;-5.90;92.90
70488;BME280;57976;48.174;16.370;2024-01-10T06:29:38;100829.38;;;-5.90;92.75
70488;BME280;57976;48.174;16.370;2024-01-10T06:31:43;100834.28;;;-5.92;92.74
70488;BME280;57976;48.174;16.370;2024-01-10T06:33:48;100835.54;;;-5.93;92.89
70488;BME280;57976;48.174;16.370;2024-01-10T06:35:53;100838.13;;;-5.93;93.07
70488;BME280;57976;48.174;16.370;2024-01-10T06:37:57;100839.20;;;-5.94;93.26
70488;BME280;57976;48.174;16.370;2024-01-10T06:40:02;100835.71;;;-5.93;93.51
70488;BME280;57976;48.174;16.370;2024-01-10T06:42:07;100833.38;;;-5.91;93.96
70488;BME280;57976;48.174;16.370;2024-01-10T06:44:12;100837.44;;;-5.88;93.46
70488;BME280;57976;48.174;16.370;2024-01-10T06:46:17;100837.42;;;-5.84;94.08
70488;BME280;57976;48.174;16.370;2024-01-10T06:48:21;100840.81;;;-5.83;93.83
70488;BME280;57976;48.174;16.370;2024-01-10T06:50:26;100844.98;;;-5.79;94.05
70488;BME280;57976;48.174;16.370;2024-01-10T06:52:31;100846.30;;;-5.74;94.37
70488;BME280;57976;48.174;16.370;2024-01-10T06:54:36;100848.39;;;-5.70;94.17
70488;BME280;57976;48.174;16.370;2024-01-10T06:56:40;100845.72;;;-5.68;93.74
70488;BME280;57976;48.174;16.370;2024-01-10T06:58:46;100848.07;;;-5.66;93.57
70488;BME280;57976;48.174;16.370;2024-01-10T07:00:54;100848.77;;;-5.66;93.22
70488;BME280;57976;48.174;16.370;2024-01-10T07:03:02;100850.44;;;-5.65;93.12
70488;BME280;57976;48.174;16.370;2024-01-10T07:05:10;100847.15;;;-5.65;93.01
70488;BME280;57976;48.174;16.370;2024-01-10T07:07:15;100843.56;;;-5.62;93.61
70488;BME280;57976;48.174;16.370;2024-01-10T07:09:19;100849.27;;;-5.57;93.76
70488;BME280;57976;48.174;16.370;2024-01-10T07:11:24;100850.20;;;-5.55;93.65
70488;BME280;57976;48.174;16.370;2024-01-10T07:13:30;100853.98;;;-5.50;93.91
70488;BME280;57976;48.174;16.370;2024-01-10T07:15:34;100858.27;;;-5.49;93.02
70488;BME280;57976;48.174;16.370;2024-01-10T07:17:39;100847.60;;;-5.46;93.44
70488;BME280;57976;48.174;16.370;2024-01-10T07:19:45;100852.64;;;-5.43;93.45
70488;BME280;57976;48.174;16.370;2024-01-10T07:21:49;100854.95;;;-5.40;93.11
70488;BME280;57976;48.174;16.370;2024-01-10T07:23:54;100856.23;;;-5.38;93.19
70488;BME280;57976;48.174;16.370;2024-01-10T07:25:59;100863.77;;;-5.32;93.00
70488;BME280;57976;48.174;16.370;2024-01-10T07:28:04;100863.88;;;-5.30;92.56
70488;BME280;57976;48.174;16.370;2024-01-10T07:30:10;100867.02;;;-5.26;92.54
70488;BME280;57976;48.174;16.370;2024-01-10T07:32:14;100868.13;;;-5.19;92.57
70488;BME280;57976;48.174;16.370;2024-01-10T07:34:19;100866.88;;;-5.14;92.31
70488;BME280;57976;48.174;16.370;2024-01-10T07:36:24;100863.58;;;-5.14;91.02
70488;BME280;57976;48.174;16.370;2024-01-10T07:38:29;100865.89;;;-5.16;90.60
70488;BME280;57976;48.174;16.370;2024-01-10T07:40:34;100860.41;;;-5.13;90.76
70488;BME280;57976;48.174;16.370;2024-01-10T07:42:38;100862.99;;;-5.09;90.94
70488;BME280;57976;48.174;16.370;2024-01-10T07:44:43;100864.17;;;-5.08;90.29
70488;BME280;57976;48.174;16.370;2024-01-10T07:46:50;100868.93;;;-5.06;89.88
70488;BME280;57976;48.174;16.370;2024-01-10T07:48:55;100868.49;;;-5.04;89.95
70488;BME280;57976;48.174;16.370;2024-01-10T07:51:00;100864.38;;;-5.01;89.53
70488;BME280;57976;48.174;16.370;2024-01-10T07:53:05;100866.63;;;-4.97;89.27
70488;BME280;57976;48.174;16.370;2024-01-10T07:55:12;100869.17;;;-4.92;89.38
70488;BME280;57976;48.174;16.370;2024-01-10T07:57:17;100867.70;;;-4.90;88.80
70488;BME280;57976;48.174;16.370;2024-01-10T07:59:22;100869.98;;;-4.90;87.87
70488;BME280;57976;48.174;16.370;2024-01-10T08:01:27;100875.52;;;-4.94;87.67
70488;BME280;57976;48.174;16.370;2024-01-10T08:03:33;100879.03;;;-4.95;87.64
70488;BME280;57976;48.174;16.370;2024-01-10T08:05:37;100875.86;;;-4.94;88.32
70488;BME280;57976;48.174;16.370;2024-01-10T08:07:42;100879.59;;;-4.88;88.76
70488;BME280;57976;48.174;16.370;2024-01-10T08:09:47;100881.65;;;-4.84;88.59
70488;BME280;57976;48.174;16.370;2024-01-10T08:11:53;100884.16;;;-4.78;88.48
70488;BME280;57976;48.174;16.370;2024-01-10T08:13:58;100873.66;;;-4.72;88.23
70488;BME280;57976;48.174;16.370;2024-01-10T08:16:03;100869.88;;;-4.64;87.82
70488;BME280;57976;48.174;16.370;2024-01-10T08:18:07;100870.61;;;-4.61;87.20
70488;BME280;57976;48.174;16.370;2024-01-10T08:20:12;100870.34;;;-4.60;86.83
70488;BME280;57976;48.174;16.370;2024-01-10T08:22:17;100871.14;;;-4.62;86.26
70488;BME280;57976;48.174;16.370;2024-01-10T08:24:22;100877.86;;;-4.61;86.43
70488;BME280;57976;48.174;16.370;2024-01-10T08:26:27;100874.98;;;-4.59;86.21
70488;BME280;57976;48.174;16.370;2024-01-10T08:28:32;100876.76;;;-4.59;85.61
70488;BME280;57976;48.174;16.370;2024-01-10T08:30:37;100873.75;;;-4.62;85.69
70488;BME280;57976;48.174;16.370;2024-01-10T08:32:42;100875.62;;;-4.61;85.89
70488;BME280;57976;48.174;16.370;2024-01-10T08:34:47;100874.03;;;-4.61;85.66
70488;BME280;57976;48.174;16.370;2024-01-10T08:36:52;100876.35;;;-4.58;85.74
70488;BME280;57976;48.174;16.370;2024-01-10T08:38:58;100873.50;;;-4.53;85.64
70488;BME280;57976;48.174;16.370;2024-01-10T08:41:03;100873.71;;;-4.46;85.78
70488;BME280;57976;48.174;16.370;2024-01-10T08:43:08;100873.58;;;-4.39;85.56
70488;BME280;57976;48.174;16.370;2024-01-10T08:45:14;100874.92;;;-4.34;84.92
70488;BME280;57976;48.174;16.370;2024-01-10T08:47:25;100876.68;;;-4.31;84.60
70488;BME280;57976;48.174;16.370;2024-01-10T08:49:30;100875.95;;;-4.30;84.36
70488;BME280;57976;48.174;16.370;2024-01-10T08:51:34;100880.35;;;-4.32;83.83
70488;BME280;57976;48.174;16.370;2024-01-10T08:53:39;100877.41;;;-4.32;84.01
70488;BME280;57976;48.174;16.370;2024-01-10T08:55:44;100879.59;;;-4.26;84.52
70488;BME280;57976;48.174;16.370;2024-01-10T08:57:49;100876.61;;;-4.22;84.63
70488;BME280;57976;48.174;16.370;2024-01-10T08:59:53;100876.92;;;-4.21;84.04
70488;BME280;57976;48.174;16.370;2024-01-10T09:01:58;100882.56;;;-4.19;83.42
70488;BME280;57976;48.174;16.370;2024-01-10T09:04:03;100884.56;;;-4.18;83.33
70488;BME280;57976;48.174;16.370;2024-01-10T09:06:08;100883.98;;;-4.12;83.56
70488;BME280;57976;48.174;16.370;2024-01-10T09:08:16;100879.63;;;-4.09;83.14
70488;BME280;57976;48.174;16.370;2024-01-10T09:10:20;100883.18;;;-4.07;83.02
70488;BME280;57976;48.174;16.370;2024-01-10T09:12:25;100884.66;;;-4.05;82.91
70488;BME280;57976;48.174;16.370;2024-01-10T09:14:30;100877.88;;;-4.04;82.91
70488;BME280;57976;48.174;16.370;2024-01-10T09:16:38;100878.29;;;-4.02;82.75
70488;BME280;57976;48.174;16.370;2024-01-10T09:18:43;100881.34;;;-4.01;83.12
70488;BME280;57976;48.174;16.370;2024-01-10T09:20:48;100879.42;;;-3.97;83.08
70488;BME280;57976;48.174;16.370;2024-01-10T09:22:54;100879.02;;;-3.92;83.10
70488;BME280;57976;48.174;16.370;2024-01-10T09:24:58;100877.05;;;-3.87;82.73
70488;BME280;57976;48.174;16.370;2024-01-10T09:27:03;100874.77;;;-3.79;83.11
70488;BME280;57976;48.174;16.370;2024-01-10T09:29:08;100877.15;;;-3.74;82.48
70488;BME280;57976;48.174;16.370;2024-01-10T09:31:13;100875.64;;;-3.68;82.78
70488;BME280;57976;48.174;16.370;2024-01-10T09:33:18;100878.30;;;-3.55;83.69
70488;BME280;57976;48.174;16.370;2024-01-10T09:35:23;100871.41;;;-3.32;90.07
70488;BME280;57976;48.174;16.370;2024-01-10T09:37:28;100867.79;;;-3.01;89.25
70488;BME280;57976;48.174;16.370;2024-01-10T09:39:32;100864.48;;;-2.81;85.90
70488;BME280;57976;48.174;16.370;2024-01-10T09:41:44;100864.97;;;-2.74;82.88
70488;BME280;57976;48.174;16.370;2024-01-10T09:43:53;100860.59;;;-2.70;81.86
70488;BME280;57976;48.174;16.370;2024-01-10T09:45:58;100858.52;;;-2.67;80.90
70488;BME280;57976;48.174;16.370;2024-01-10T09:48:06;100857.85;;;-2.67;80.51
70488;BME280;57976;48.174;16.370;2024-01-10T09:50:10;100850.73;;;-2.61;81.10
70488;BME280;57976;48.174;16.370;2024-01-10T09:52:19;100846.51;;;-2.57;80.71
70488;BME280;57976;48.174;16.370;2024-01-10T09:54:28;100845.30;;;-2.50;80.75
70488;BME280;57976;48.174;16.370;2024-01-10T09:56:36;100844.23;;;-2.47;80.59
70488;BME280;57976;48.174;16.370;2024-01-10T09:58:44;100841.15;;;-2.45;80.41
70488;BME280;57976;48.174;16.370;2024-01-10T10:00:49;100840.88;;;-2.46;79.54
70488;BME280;57976;48.174;16.370;2024-01-10T10:02:55;100840.35;;;-2.49;80.27
70488;BME280;57976;48.174;16.370;2024-01-10T10:05:08;100838.58;;;-2.45;81.24
70488;BME280;57976;48.174;16.370;2024-01-10T10:07:14;100834.63;;;-2.40;81.26
70488;BME280;57976;48.174;16.370;2024-01-10T10:09:20;100835.47;;;-2.33;80.46
70488;BME280;57976;48.174;16.370;2024-01-10T10:11:24;100829.44;;;-2.31;80.32
70488;BME280;57976;48.174;16.370;2024-01-10T10:13:30;100825.56;;;-2.27;80.44
70488;BME280;57976;48.174;16.370;2024-01-10T10:15:35;100821.23;;;-2.23;80.28
70488;BME280;57976;48.174;16.370;2024-01-10T10:17:40;100821.42;;;-2.21;80.40
70488;BME280;57976;48.174;16.370;2024-01-10T10:19:45;100820.31;;;-2.16;80.34
70488;BME280;57976;48.174;16.370;2024-01-10T10:21:50;100822.12;;;-2.11;80.38
70488;BME280;57976;48.174;16.370;2024-01-10T10:24:01;100818.19;;;-2.06;80.59
70488;BME280;57976;48.174;16.370;2024-01-10T10:26:14;100817.98;;;-2.03;80.60
70488;BME280;57976;48.174;16.370;2024-01-10T10:28:19;100820.41;;;-2.00;80.67
70488;BME280;57976;48.174;16.370;2024-01-10T10:30:33;100817.59;;;-1.96;80.89
70488;BME280;57976;48.174;16.370;2024-01-10T10:32:42;100812.38;;;-1.90;80.89
70488;BME280;57976;48.174;16.370;2024-01-10T10:34:46;100814.06;;;-1.82;81.27
70488;BME280;57976;48.174;16.370;2024-01-10T10:36:51;100810.98;;;-1.75;81.14
70488;BME280;57976;48.174;16.370;2024-01-10T10:38:58;100806.66;;;-1.66;81.32
70488;BME280;57976;48.174;16.370;2024-01-10T10:41:06;100804.39;;;-1.60;81.36
70488;BME280;57976;48.174;16.370;2024-01-10T10:43:14;100801.48;;;-1.52;81.45
70488;BME280;57976;48.174;16.370;2024-01-10T10:45:22;100807.08;;;-1.43;81.64
70488;BME280;57976;48.174;16.370;2024-01-10T10:47:29;100802.48;;;-1.33;82.02